EZY42PW EGAA-EGKK
Flight info
| Callsign | EZY42PW |
|---|---|
| Flight time | N/A |
| Altitude | 33000 |
| Route | LISBO DCT RINGA DCT BABGU DCT ETIGA DCT INKOB Q39 NOMSU UQ4 WAL L151 DISIT |
| Aircraft | A320/M-SDE3FGHIRWY/LB1 |
Departure
| Time | 2026-05-05 22:58 |
|---|---|
| Airport | Belfast International Airport (EGAA) |
Arrival
| Time | N/A |
|---|---|
| Airport | London Gatwick Airport (EGKK) |
| Time | Latitude | Longitude | Altitude | Speed | Heading |
|---|---|---|---|---|---|
| 2026-05-05 22:57 | 54.59983 | -6.08871 | 5928 ft | 283 kts | 183° |
| 2026-05-05 22:58 | 54.58020 | -6.08993 | 6063 ft | 283 kts | 183° |
| 2026-05-05 22:58 | 54.56053 | -6.08998 | 6090 ft | 283 kts | 176° |
| 2026-05-05 22:58 | 54.54152 | -6.08183 | 6088 ft | 284 kts | 156° |
| 2026-05-05 22:58 | 54.52495 | -6.06330 | 6089 ft | 285 kts | 136° |
| 2026-05-05 22:59 | 54.51266 | -6.03701 | 6108 ft | 283 kts | 117° |
| 2026-05-05 22:59 | 54.50479 | -6.00543 | 6811 ft | 288 kts | 110° |
| 2026-05-05 22:59 | 54.49730 | -5.97369 | 7925 ft | 284 kts | 111° |
| 2026-05-05 22:59 | 54.49195 | -5.95166 | 8520 ft | 291 kts | 111° |
| 2026-05-05 23:01 | 54.49150 | -5.94980 | 8564 ft | 290 kts | 110° |
| 2026-05-05 23:01 | 54.48403 | -5.91737 | 9460 ft | 296 kts | 110° |
| 2026-05-05 23:02 | 54.47599 | -5.88431 | 10266 ft | 304 kts | 111° |
| 2026-05-05 23:02 | 54.46734 | -5.84954 | 10618 ft | 328 kts | 112° |
| 2026-05-05 23:02 | 54.46118 | -5.82484 | 10820 ft | 344 kts | 112° |
| 2026-05-05 23:03 | 54.45877 | -5.81516 | 10882 ft | 350 kts | 112° |
| 2026-05-05 23:03 | 54.44888 | -5.77545 | 11114 ft | 373 kts | 112° |
| 2026-05-05 23:04 | 54.43837 | -5.73316 | 11262 ft | 396 kts | 112° |
| 2026-05-05 23:04 | 54.43074 | -5.68790 | 12084 ft | 387 kts | 89° |
| 2026-05-05 23:04 | 54.43478 | -5.64279 | 13113 ft | 385 kts | 76° |
| 2026-05-05 23:04 | 54.43680 | -5.59666 | 13229 ft | 399 kts | 96° |
| 2026-05-05 23:05 | 54.42781 | -5.55067 | 13419 ft | 418 kts | 121° |
| 2026-05-05 23:05 | 54.40834 | -5.51337 | 13905 ft | 425 kts | 143° |
| 2026-05-05 23:05 | 54.38409 | -5.48404 | 14485 ft | 429 kts | 146° |
| 2026-05-05 23:05 | 54.35948 | -5.45461 | 15058 ft | 432 kts | 144° |
| 2026-05-05 23:06 | 54.34474 | -5.43301 | 15425 ft | 434 kts | 135° |
| 2026-05-05 23:06 | 54.32723 | -5.39513 | 15927 ft | 438 kts | 124° |
| 2026-05-05 23:06 | 54.31022 | -5.35170 | 16465 ft | 441 kts | 125° |
| 2026-05-05 23:07 | 54.29265 | -5.30836 | 16958 ft | 444 kts | 126° |
| 2026-05-05 23:07 | 54.27485 | -5.26569 | 17429 ft | 448 kts | 127° |
| 2026-05-05 23:07 | 54.25552 | -5.22283 | 17912 ft | 451 kts | 130° |
| 2026-05-05 23:07 | 54.23553 | -5.18135 | 18375 ft | 453 kts | 131° |
| 2026-05-05 23:08 | 54.21529 | -5.14075 | 18773 ft | 455 kts | 132° |
| 2026-05-05 23:08 | 54.19432 | -5.09904 | 19189 ft | 458 kts | 132° |
| 2026-05-05 23:08 | 54.17360 | -5.05753 | 19593 ft | 460 kts | 131° |
| 2026-05-05 23:08 | 54.15329 | -5.01616 | 19976 ft | 462 kts | 131° |
| 2026-05-05 23:09 | 54.13278 | -4.97381 | 20337 ft | 464 kts | 131° |
| 2026-05-05 23:09 | 54.11225 | -4.93119 | 20701 ft | 466 kts | 131° |
| 2026-05-05 23:09 | 54.09164 | -4.88836 | 21063 ft | 468 kts | 131° |
| 2026-05-05 23:09 | 54.07090 | -4.84547 | 21379 ft | 470 kts | 131° |
| 2026-05-05 23:10 | 54.05000 | -4.80248 | 21703 ft | 472 kts | 131° |
| 2026-05-05 23:10 | 54.02917 | -4.75895 | 22013 ft | 475 kts | 130° |
| 2026-05-05 23:10 | 54.00882 | -4.71445 | 22297 ft | 477 kts | 129° |
| 2026-05-05 23:10 | 53.98878 | -4.66918 | 22430 ft | 482 kts | 128° |
| 2026-05-05 23:11 | 53.96876 | -4.62324 | 22567 ft | 486 kts | 128° |
| 2026-05-05 23:11 | 53.94860 | -4.57692 | 22791 ft | 486 kts | 128° |
| 2026-05-05 23:11 | 53.92843 | -4.53100 | 23202 ft | 484 kts | 129° |
| 2026-05-05 23:11 | 53.90813 | -4.48535 | 23455 ft | 485 kts | 129° |
| 2026-05-05 23:12 | 53.88766 | -4.43991 | 23692 ft | 485 kts | 129° |
| 2026-05-05 23:12 | 53.86713 | -4.39451 | 23872 ft | 486 kts | 129° |
| 2026-05-05 23:12 | 53.84706 | -4.34830 | 24049 ft | 488 kts | 128° |
| 2026-05-05 23:12 | 53.82757 | -4.30118 | 24223 ft | 489 kts | 126° |
| 2026-05-05 23:13 | 53.80846 | -4.25352 | 24383 ft | 490 kts | 126° |
| 2026-05-05 23:13 | 53.78968 | -4.20618 | 24527 ft | 491 kts | 126° |
| 2026-05-05 23:13 | 53.77056 | -4.15827 | 24667 ft | 492 kts | 126° |
| 2026-05-05 23:13 | 53.75329 | -4.10817 | 24811 ft | 495 kts | 115° |
| 2026-05-05 23:14 | 53.74400 | -4.05212 | 24993 ft | 498 kts | 99° |
| 2026-05-05 23:14 | 53.74276 | -3.99357 | 25176 ft | 499 kts | 90° |
| 2026-05-05 23:14 | 53.74342 | -3.93495 | 25361 ft | 499 kts | 90° |
| 2026-05-05 23:14 | 53.74416 | -3.87631 | 25527 ft | 499 kts | 89° |
| 2026-05-05 23:15 | 53.74631 | -3.81760 | 25649 ft | 501 kts | 86° |
| 2026-05-05 23:15 | 53.74931 | -3.75949 | 26307 ft | 489 kts | 86° |
| 2026-05-05 23:15 | 53.75228 | -3.70314 | 27366 ft | 472 kts | 86° |
| 2026-05-05 23:15 | 53.75516 | -3.64911 | 28652 ft | 453 kts | 86° |
| 2026-05-05 23:16 | 53.75700 | -3.61449 | 29556 ft | 440 kts | 86° |
| 2026-05-05 23:16 | 53.75968 | -3.56417 | 30829 ft | 420 kts | 86° |
| 2026-05-05 23:16 | 53.76225 | -3.51604 | 32045 ft | 400 kts | 86° |
| 2026-05-05 23:16 | 53.76470 | -3.47020 | 33126 ft | 387 kts | 86° |
| 2026-05-05 23:17 | 53.77259 | -3.32149 | 34602 ft | 387 kts | 86° |
| 2026-05-05 23:17 | 53.78171 | -3.13778 | 35774 ft | 397 kts | 86° |
| 2026-05-05 23:17 | 53.79030 | -2.94911 | 36857 ft | 406 kts | 86° |
| 2026-05-05 23:17 | 53.79873 | -2.75261 | 37125 ft | 432 kts | 86° |
| 2026-05-05 23:18 | 53.80751 | -2.54270 | 36931 ft | 464 kts | 86° |
| 2026-05-05 23:18 | 53.81659 | -2.32119 | 36805 ft | 482 kts | 86° |
| 2026-05-05 23:18 | 53.82215 | -2.18306 | 36929 ft | 486 kts | 86° |
| 2026-05-05 23:18 | 53.82442 | -2.12618 | 37030 ft | 482 kts | 86° |
| 2026-05-05 23:19 | 53.82661 | -2.07001 | 37012 ft | 470 kts | 86° |
| 2026-05-05 23:19 | 53.82866 | -2.01564 | 37020 ft | 458 kts | 86° |
| 2026-05-05 23:19 | 53.83270 | -1.90942 | 37022 ft | 446 kts | 86° |
| 2026-05-05 23:20 | 53.83654 | -1.80668 | 37028 ft | 426 kts | 86° |
| 2026-05-05 23:20 | 53.83829 | -1.75772 | 37027 ft | 408 kts | 87° |
| 2026-05-05 23:20 | 53.83995 | -1.71110 | 37028 ft | 397 kts | 87° |
| 2026-05-05 23:21 | 53.84159 | -1.66511 | 37029 ft | 386 kts | 86° |
| 2026-05-05 23:21 | 53.84323 | -1.61998 | 37029 ft | 382 kts | 86° |
| 2026-05-05 23:21 | 53.84647 | -1.53108 | 37029 ft | 374 kts | 86° |
| 2026-05-05 23:22 | 53.84962 | -1.44452 | 37026 ft | 361 kts | 87° |
| 2026-05-05 23:22 | 53.85108 | -1.40287 | 37022 ft | 347 kts | 87° |
| 2026-05-05 23:22 | 53.85360 | -1.36315 | 36885 ft | 335 kts | 71° |
| 2026-05-05 23:23 | 53.86311 | -1.32654 | 36110 ft | 345 kts | 65° |
| 2026-05-05 23:23 | 53.87227 | -1.28958 | 36112 ft | 330 kts | 69° |
| 2026-05-05 23:23 | 53.87963 | -1.25414 | 36359 ft | 310 kts | 72° |
| 2026-05-05 23:23 | 53.88557 | -1.21917 | 35985 ft | 312 kts | 76° |
| 2026-05-05 23:24 | 53.89043 | -1.18234 | 35220 ft | 328 kts | 80° |
| 2026-05-05 23:24 | 53.89401 | -1.14412 | 34908 ft | 325 kts | 84° |
| 2026-05-05 23:24 | 53.89610 | -1.10700 | 35036 ft | 307 kts | 88° |
| 2026-05-05 23:24 | 53.89680 | -1.07126 | 34867 ft | 303 kts | 91° |
| 2026-05-05 23:25 | 53.89614 | -1.03505 | 34309 ft | 313 kts | 95° |
| 2026-05-05 23:25 | 53.89403 | -0.99814 | 33858 ft | 313 kts | 98° |
| 2026-05-05 23:25 | 53.89055 | -0.95851 | 30969 ft | 379 kts | 101° |
| 2026-05-05 23:25 | 53.88496 | -0.91130 | 29451 ft | 414 kts | 102° |
| 2026-05-05 23:26 | 53.87833 | -0.86486 | 29669 ft | 381 kts | 106° |
| 2026-05-05 23:26 | 53.87131 | -0.82177 | 28052 ft | 398 kts | 107° |
| 2026-05-05 23:26 | 53.86240 | -0.77337 | 24831 ft | 459 kts | 108° |
| 2026-05-05 23:26 | 53.85287 | -0.72631 | 22493 ft | 496 kts | 110° |
| 2026-05-05 23:27 | 53.84218 | -0.67736 | 23597 ft | 399 kts | 114° |